createdAt,value
2018-11-27T00:00:54.480Z,88.50
2018-11-27T00:03:23.594Z,89.20
2018-11-27T00:05:52.765Z,89.30
2018-11-27T00:08:21.860Z,89.50
2018-11-27T00:10:51.195Z,89.50
2018-11-27T00:13:20.301Z,89.90
2018-11-27T00:15:49.494Z,90.00
2018-11-27T00:18:18.610Z,90.00
2018-11-27T00:20:48.523Z,90.20
2018-11-27T00:23:17.631Z,90.30
2018-11-27T00:25:47.045Z,90.30
2018-11-27T00:28:16.119Z,90.30
2018-11-27T00:30:45.225Z,90.10
2018-11-27T00:33:14.413Z,90.20
2018-11-27T00:35:43.891Z,90.00
2018-11-27T00:38:13.055Z,90.20
2018-11-27T00:40:42.225Z,90.30
2018-11-27T00:43:11.357Z,90.40
2018-11-27T00:45:40.827Z,90.30
2018-11-27T00:48:09.911Z,90.10
2018-11-27T00:50:39.159Z,90.20
2018-11-27T00:53:08.256Z,90.10
2018-11-27T00:55:37.407Z,90.10
2018-11-27T00:58:07.163Z,90.30
2018-11-27T01:00:36.585Z,90.40
2018-11-27T01:03:06.153Z,90.60
2018-11-27T01:05:35.412Z,90.60
2018-11-27T01:08:04.494Z,90.60
2018-11-27T01:10:33.894Z,90.50
2018-11-27T01:13:03.064Z,90.70
2018-11-27T01:15:32.389Z,90.90
2018-11-27T01:18:01.493Z,90.70
2018-11-27T01:20:30.790Z,90.50
2018-11-27T01:22:59.900Z,90.60
2018-11-27T01:25:29.278Z,90.80
2018-11-27T01:27:58.354Z,90.90
2018-11-27T01:30:27.784Z,90.80
2018-11-27T01:32:56.853Z,90.90
2018-11-27T01:35:26.192Z,90.60
2018-11-27T01:37:55.530Z,90.60
2018-11-27T01:40:26.078Z,90.70
2018-11-27T01:42:56.064Z,90.90
2018-11-27T01:45:25.640Z,90.90
2018-11-27T01:47:55.139Z,91.10
2018-11-27T01:50:24.657Z,91.20
2018-11-27T01:52:53.734Z,91.30
2018-11-27T01:55:23.516Z,91.30
2018-11-27T01:57:52.789Z,91.30
2018-11-27T02:00:24.829Z,91.10
2018-11-27T02:03:00.175Z,91.10
2018-11-27T02:05:29.676Z,91.20
2018-11-27T02:07:58.846Z,91.10
2018-11-27T02:10:28.005Z,91.40
2018-11-27T02:13:01.244Z,91.30
2018-11-27T02:15:32.162Z,91.00
2018-11-27T02:18:01.283Z,91.00
2018-11-27T02:20:30.521Z,90.90
2018-11-27T02:22:59.628Z,91.00
2018-11-27T02:25:30.029Z,90.90
2018-11-27T02:27:59.122Z,90.90
2018-11-27T02:33:14.225Z,91.00
2018-11-27T02:35:43.332Z,90.90
2018-11-27T02:38:12.466Z,91.00
2018-11-27T02:40:41.655Z,91.00
2018-11-27T02:43:10.709Z,91.00
2018-11-27T02:45:39.994Z,91.10
2018-11-27T02:48:09.179Z,91.00
2018-11-27T02:50:38.651Z,91.00
2018-11-27T02:53:07.755Z,91.00
2018-11-27T02:55:36.865Z,91.10
2018-11-27T02:58:06.846Z,91.10
2018-11-27T03:00:36.174Z,91.00
2018-11-27T03:03:05.949Z,91.00
2018-11-27T03:05:36.524Z,91.00
2018-11-27T03:08:05.739Z,91.00
2018-11-27T03:10:34.876Z,91.00
2018-11-27T03:13:03.997Z,91.00
2018-11-27T03:15:33.239Z,90.80
2018-11-27T03:18:02.389Z,90.80
2018-11-27T03:20:31.758Z,90.70
2018-11-27T03:23:00.870Z,90.80
2018-11-27T03:25:30.006Z,90.80
2018-11-27T03:27:59.074Z,90.70
2018-11-27T03:30:28.163Z,90.80
2018-11-27T03:32:57.318Z,90.90
2018-11-27T03:35:26.699Z,90.90
2018-11-27T03:37:55.784Z,91.00
2018-11-27T03:40:26.579Z,91.00
2018-11-27T03:42:56.022Z,90.90
2018-11-27T03:45:25.967Z,90.90
2018-11-27T03:47:55.078Z,90.90
2018-11-27T03:50:29.465Z,90.80
2018-11-27T03:52:58.601Z,90.90
2018-11-27T03:55:27.926Z,90.90
2018-11-27T03:57:57.000Z,91.00
2018-11-27T04:00:27.839Z,91.00
2018-11-27T04:03:03.622Z,90.90
2018-11-27T04:05:33.116Z,90.90
2018-11-27T04:08:02.280Z,91.00
2018-11-27T04:10:31.419Z,91.00
2018-11-27T04:13:05.851Z,91.10
2018-11-27T04:15:35.220Z,91.00
2018-11-27T04:18:04.409Z,91.00
2018-11-27T04:20:33.766Z,91.00
2018-11-27T04:23:02.869Z,90.90
2018-11-27T04:25:32.282Z,91.00
2018-11-27T04:28:01.383Z,91.00
2018-11-27T04:30:30.595Z,90.90
2018-11-27T04:32:59.732Z,90.90
2018-11-27T04:35:29.080Z,90.90
2018-11-27T04:37:59.502Z,90.80
2018-11-27T04:40:27.377Z,90.70
2018-11-27T04:42:56.507Z,90.50
2018-11-27T04:45:27.008Z,90.30
2018-11-27T04:48:01.852Z,90.30
2018-11-27T04:50:31.034Z,90.30
2018-11-27T04:53:00.132Z,90.30
2018-11-27T04:55:34.820Z,90.30
2018-11-27T04:58:03.938Z,90.50
2018-11-27T05:00:33.326Z,90.50
2018-11-27T05:03:02.518Z,90.30
2018-11-27T05:05:31.826Z,90.40
2018-11-27T05:08:00.902Z,90.20
2018-11-27T05:10:30.048Z,90.40
2018-11-27T05:12:59.174Z,89.80
2018-11-27T05:15:28.363Z,89.70
2018-11-27T05:17:58.713Z,90.00
2018-11-27T05:20:27.841Z,90.20
2018-11-27T05:23:02.625Z,90.20
2018-11-27T05:25:31.989Z,90.00
2018-11-27T05:28:01.137Z,90.10
2018-11-27T05:30:30.561Z,90.00
2018-11-27T05:32:59.685Z,90.00
2018-11-27T05:35:29.867Z,90.10
2018-11-27T05:38:00.638Z,89.90
2018-11-27T05:40:30.010Z,90.30
2018-11-27T05:43:01.778Z,90.20
2018-11-27T05:45:31.623Z,90.10
2018-11-27T05:48:00.729Z,90.10
2018-11-27T05:50:29.807Z,90.00
2018-11-27T05:52:58.859Z,89.60
2018-11-27T05:55:28.773Z,89.70
2018-11-27T05:57:58.122Z,89.70
2018-11-27T06:00:28.751Z,89.80
2018-11-27T06:03:05.161Z,89.70
2018-11-27T06:05:34.708Z,89.30
2018-11-27T06:08:04.032Z,88.90
2018-11-27T06:10:33.143Z,89.10
2018-11-27T06:13:02.246Z,89.00
2018-11-27T06:15:32.659Z,89.20
2018-11-27T06:18:01.993Z,89.00
2018-11-27T06:20:31.427Z,89.20
2018-11-27T06:23:00.519Z,89.70
2018-11-27T06:25:31.137Z,89.30
2018-11-27T06:28:01.543Z,89.20
2018-11-27T06:30:31.607Z,89.60
2018-11-27T06:33:00.740Z,89.60
2018-11-27T06:35:32.583Z,89.50
2018-11-27T06:38:01.683Z,89.40
2018-11-27T06:40:37.377Z,89.30
2018-11-27T06:43:08.266Z,89.80
2018-11-27T06:45:38.151Z,89.90
2018-11-27T06:48:07.945Z,89.90
2018-11-27T06:50:37.369Z,90.00
2018-11-27T06:53:07.585Z,90.10
2018-11-27T06:55:37.708Z,90.10
2018-11-27T06:58:08.038Z,90.30
2018-11-27T07:00:37.439Z,90.40
2018-11-27T07:03:10.511Z,90.40
2018-11-27T07:05:40.138Z,90.40
2018-11-27T07:08:09.820Z,90.40
2018-11-27T07:10:40.908Z,90.30
2018-11-27T07:13:13.294Z,90.50
2018-11-27T07:15:42.615Z,90.30
2018-11-27T07:18:11.754Z,90.10
2018-11-27T07:20:40.868Z,90.20
2018-11-27T07:23:10.018Z,90.30
2018-11-27T07:25:39.647Z,90.30
2018-11-27T07:28:08.760Z,90.30
2018-11-27T07:30:39.875Z,90.30
2018-11-27T07:33:09.017Z,90.40
2018-11-27T07:35:38.492Z,90.30
2018-11-27T07:38:07.785Z,90.50
2018-11-27T07:40:37.015Z,90.60
2018-11-27T07:43:13.530Z,90.60
2018-11-27T07:45:42.968Z,90.20
2018-11-27T07:48:12.064Z,90.20
2018-11-27T07:50:41.338Z,90.20
2018-11-27T07:53:10.643Z,90.00
2018-11-27T07:55:45.689Z,90.10
2018-11-27T07:58:14.854Z,90.40
2018-11-27T08:00:44.868Z,90.40
2018-11-27T08:03:19.218Z,90.40
2018-11-27T08:05:48.832Z,90.50
2018-11-27T08:08:19.119Z,90.30
2018-11-27T08:10:49.536Z,90.30
2018-11-27T08:13:24.356Z,90.10
2018-11-27T08:15:54.025Z,90.30
2018-11-27T08:18:23.298Z,90.00
2018-11-27T08:20:52.425Z,89.70
2018-11-27T08:23:21.518Z,89.10
2018-11-27T08:25:50.926Z,89.70
2018-11-27T08:28:20.091Z,90.10
2018-11-27T08:30:49.199Z,90.30
2018-11-27T08:33:18.260Z,90.40
2018-11-27T08:35:47.612Z,90.00
2018-11-27T08:38:16.707Z,90.40
2018-11-27T08:40:45.822Z,90.30
2018-11-27T08:43:15.016Z,90.20
2018-11-27T08:45:44.498Z,89.90
2018-11-27T08:48:13.580Z,90.00
2018-11-27T08:50:42.958Z,90.00
2018-11-27T08:53:12.180Z,90.10
2018-11-27T08:55:42.703Z,89.80
2018-11-27T08:58:18.338Z,89.70
2018-11-27T09:00:47.913Z,89.20
2018-11-27T09:03:22.726Z,89.70
2018-11-27T09:05:51.982Z,89.70
2018-11-27T09:08:21.088Z,89.40
2018-11-27T09:10:50.332Z,89.60
2018-11-27T09:13:19.448Z,89.60
2018-11-27T09:15:48.687Z,90.10
2018-11-27T09:18:20.442Z,89.70
2018-11-27T09:20:49.890Z,89.30
2018-11-27T09:23:19.038Z,89.20
2018-11-27T09:25:48.174Z,89.30
2018-11-27T09:28:17.435Z,89.50
2018-11-27T09:30:46.764Z,89.40
2018-11-27T09:33:15.926Z,89.60
2018-11-27T09:35:45.125Z,89.60
2018-11-27T09:38:14.384Z,89.10
2018-11-27T09:40:43.575Z,87.80
2018-11-27T09:43:12.740Z,88.90
2018-11-27T09:45:43.205Z,89.00
2018-11-27T09:48:12.422Z,89.60
2018-11-27T09:50:41.988Z,89.60
2018-11-27T09:53:12.546Z,89.90
2018-11-27T09:55:41.907Z,89.90
2018-11-27T09:58:11.012Z,89.50
2018-11-27T10:00:40.216Z,88.90
2018-11-27T10:03:11.935Z,88.60
2018-11-27T10:05:41.377Z,88.10
2018-11-27T10:08:10.578Z,88.30
2018-11-27T10:10:45.342Z,87.90
2018-11-27T10:13:14.479Z,87.10
2018-11-27T10:15:49.248Z,87.20
2018-11-27T10:18:18.356Z,87.20
2018-11-27T10:20:48.242Z,86.80
2018-11-27T10:23:17.394Z,86.60
2018-11-27T10:25:46.748Z,86.30
2018-11-27T10:28:15.815Z,86.10
2018-11-27T10:30:44.976Z,86.20
2018-11-27T10:33:14.043Z,85.60
2018-11-27T10:35:48.957Z,85.40
2018-11-27T10:38:18.054Z,85.20
2018-11-27T10:40:48.060Z,84.70
2018-11-27T10:43:19.636Z,84.20
2018-11-27T10:45:46.742Z,83.70
2018-11-27T10:48:15.846Z,83.50
2018-11-27T10:50:45.042Z,83.10
2018-11-27T10:53:14.298Z,82.30
2018-11-27T10:55:43.660Z,82.50
2018-11-27T10:58:13.442Z,82.40
2018-11-27T11:00:47.861Z,81.50
2018-11-27T11:03:24.306Z,80.20
2018-11-27T11:05:56.421Z,79.90
2018-11-27T11:08:25.497Z,79.70
2018-11-27T11:10:54.922Z,78.50
2018-11-27T11:13:23.999Z,76.50
2018-11-27T11:15:59.114Z,75.80
2018-11-27T11:18:28.217Z,75.40
2018-11-27T11:20:57.492Z,76.00
2018-11-27T11:23:26.646Z,75.60
2018-11-27T11:25:55.823Z,75.80
2018-11-27T11:28:26.913Z,75.20
2018-11-27T11:30:56.275Z,74.40
2018-11-27T11:33:25.369Z,74.40
2018-11-27T11:35:54.800Z,73.70
2018-11-27T11:38:23.967Z,72.60
2018-11-27T11:40:53.297Z,70.90
2018-11-27T11:43:22.400Z,70.90
2018-11-27T11:45:52.036Z,71.00
2018-11-27T11:48:20.970Z,70.20
2018-11-27T11:50:50.298Z,69.80
2018-11-27T11:53:20.013Z,68.40
2018-11-27T11:55:49.386Z,69.20
2018-11-27T11:58:18.469Z,69.40
2018-11-27T12:00:55.064Z,70.00
2018-11-27T12:03:25.054Z,69.20
2018-11-27T12:05:54.401Z,70.00
2018-11-27T12:08:23.487Z,70.20
2018-11-27T12:10:52.974Z,69.50
2018-11-27T12:13:22.254Z,69.00
2018-11-27T12:15:52.308Z,69.40
2018-11-27T12:18:21.490Z,70.20
2018-11-27T12:20:56.494Z,71.20
2018-11-27T12:23:25.612Z,71.60
2018-11-27T12:25:54.908Z,72.00
2018-11-27T12:28:24.153Z,72.40
2018-11-27T12:30:53.301Z,70.60
2018-11-27T12:33:22.447Z,68.00
2018-11-27T12:35:51.580Z,67.00
2018-11-27T12:38:20.684Z,66.90
2018-11-27T12:40:49.862Z,69.30
2018-11-27T12:43:24.758Z,70.40
2018-11-27T12:45:54.433Z,72.20
2018-11-27T12:48:23.507Z,73.10
2018-11-27T12:50:52.738Z,75.00
2018-11-27T12:53:27.367Z,75.70
2018-11-27T12:55:56.527Z,76.40
2018-11-27T12:58:25.639Z,77.20
2018-11-27T13:00:54.839Z,78.40
2018-11-27T13:03:24.063Z,77.00
2018-11-27T13:05:53.261Z,77.80
2018-11-27T13:08:23.764Z,79.00
2018-11-27T13:10:58.895Z,78.50
2018-11-27T13:13:27.983Z,78.80
2018-11-27T13:15:57.323Z,79.50
2018-11-27T13:18:31.905Z,80.00
2018-11-27T13:21:01.006Z,80.30
2018-11-27T13:23:30.125Z,80.70
2018-11-27T13:26:05.254Z,80.90
2018-11-27T13:28:34.483Z,81.30
2018-11-27T13:31:06.849Z,81.50
2018-11-27T13:33:41.139Z,81.70
2018-11-27T13:36:10.895Z,82.00
2018-11-27T13:38:39.984Z,82.30
2018-11-27T13:41:09.478Z,82.30
2018-11-27T13:43:38.951Z,82.20
2018-11-27T13:46:14.551Z,82.50
2018-11-27T13:48:43.640Z,82.90
2018-11-27T13:51:13.050Z,83.10
2018-11-27T13:53:53.548Z,83.20
2018-11-27T13:56:23.014Z,83.30
2018-11-27T13:58:52.161Z,83.40
2018-11-27T14:01:21.566Z,83.80
2018-11-27T14:03:50.718Z,84.10
2018-11-27T14:06:20.108Z,84.20
2018-11-27T14:08:49.244Z,84.20
2018-11-27T14:11:19.241Z,84.40
2018-11-27T14:13:47.883Z,85.40
2018-11-27T14:16:17.319Z,84.60
2018-11-27T14:18:46.481Z,84.70
2018-11-27T14:21:16.175Z,84.90
2018-11-27T14:23:45.379Z,85.30
2018-11-27T14:26:14.967Z,85.60
2018-11-27T14:28:44.121Z,85.90
2018-11-27T14:31:13.504Z,86.30
2018-11-27T14:33:42.677Z,86.70
2018-11-27T14:36:12.070Z,87.00
2018-11-27T14:38:41.167Z,87.20
2018-11-27T14:41:10.377Z,87.50
2018-11-27T14:43:39.600Z,87.60
2018-11-27T14:46:09.408Z,87.80
2018-11-27T14:48:38.503Z,88.20
2018-11-27T14:51:07.908Z,88.50
2018-11-27T14:53:42.642Z,88.70
2018-11-27T14:56:12.037Z,88.90
2018-11-27T14:58:41.122Z,89.10
2018-11-27T15:01:10.334Z,89.40
2018-11-27T15:03:39.432Z,89.60
2018-11-27T15:06:08.841Z,89.80
2018-11-27T15:08:37.953Z,89.50
2018-11-27T15:11:12.580Z,89.70
2018-11-27T15:13:41.726Z,89.80
2018-11-27T15:16:10.894Z,89.90
2018-11-27T15:18:40.034Z,90.00
2018-11-27T15:21:15.007Z,90.10
2018-11-27T15:23:44.254Z,90.20
2018-11-27T15:26:13.693Z,90.30
2018-11-27T15:28:48.460Z,90.40
2018-11-27T15:31:17.818Z,90.50
2018-11-27T15:33:47.130Z,90.60
2018-11-27T15:36:16.634Z,90.70
2018-11-27T15:38:45.753Z,90.80
2018-11-27T15:41:15.146Z,90.90
2018-11-27T15:43:44.299Z,90.90
2018-11-27T15:46:19.479Z,91.00
2018-11-27T15:48:49.348Z,91.10
2018-11-27T15:51:18.983Z,91.20
2018-11-27T15:53:48.073Z,91.20
2018-11-27T15:56:17.630Z,91.30
2018-11-27T15:58:46.848Z,91.30
2018-11-27T16:01:16.803Z,91.20
2018-11-27T16:03:45.932Z,91.30
2018-11-27T16:06:15.276Z,91.30
2018-11-27T16:08:44.458Z,91.40
2018-11-27T16:11:13.928Z,91.50
2018-11-27T16:13:43.122Z,91.50
2018-11-27T16:16:12.476Z,91.50
2018-11-27T16:18:41.909Z,91.50
2018-11-27T16:21:11.226Z,91.60
2018-11-27T16:23:40.335Z,91.60
2018-11-27T16:26:09.508Z,91.60
2018-11-27T16:28:38.614Z,91.60
2018-11-27T16:31:13.654Z,91.80
2018-11-27T16:33:42.850Z,91.80
2018-11-27T16:36:12.344Z,91.70
2018-11-27T16:38:41.450Z,91.70
2018-11-27T16:41:10.930Z,91.70
2018-11-27T16:43:40.042Z,91.70
2018-11-27T16:46:09.226Z,91.80
2018-11-27T16:48:38.442Z,91.80
2018-11-27T16:51:13.329Z,91.90
2018-11-27T16:53:42.440Z,91.90
2018-11-27T16:56:11.851Z,91.90
2018-11-27T16:58:41.137Z,91.90
2018-11-27T17:01:10.719Z,92.00
2018-11-27T17:03:39.833Z,92.00
2018-11-27T17:06:09.014Z,92.00
2018-11-27T17:08:38.156Z,92.10
2018-11-27T17:11:07.418Z,92.20
2018-11-27T17:13:36.493Z,92.30
2018-11-27T17:16:06.219Z,92.30
2018-11-27T17:18:35.360Z,92.30
2018-11-27T17:21:04.670Z,92.30
2018-11-27T17:23:33.754Z,92.30
2018-11-27T17:26:08.364Z,92.30
2018-11-27T17:28:37.508Z,92.30
2018-11-27T17:31:14.608Z,92.20
2018-11-27T17:33:49.583Z,92.20
2018-11-27T17:36:18.702Z,92.30
2018-11-27T17:38:47.818Z,92.40
2018-11-27T17:41:16.990Z,92.30
2018-11-27T17:43:46.242Z,92.30
2018-11-27T17:46:15.781Z,92.30
2018-11-27T17:48:45.045Z,92.30
2018-11-27T17:51:14.175Z,92.30
2018-11-27T17:53:43.289Z,92.40
2018-11-27T17:56:12.773Z,92.40
2018-11-27T17:58:41.929Z,92.50
2018-11-27T18:01:11.420Z,92.60
2018-11-27T18:03:40.634Z,92.60
2018-11-27T18:06:09.763Z,92.60
2018-11-27T18:08:39.093Z,92.70
2018-11-27T18:11:08.396Z,92.70
2018-11-27T18:13:37.509Z,92.60
2018-11-27T18:16:12.407Z,92.60
2018-11-27T18:18:41.607Z,92.60
2018-11-27T18:21:11.230Z,92.60
2018-11-27T18:23:40.386Z,92.60
2018-11-27T18:26:09.684Z,92.60
2018-11-27T18:28:38.792Z,92.60
2018-11-27T18:31:08.333Z,92.50
2018-11-27T18:33:37.586Z,92.60
2018-11-27T18:36:06.962Z,92.60
2018-11-27T18:38:36.174Z,92.50
2018-11-27T18:41:06.067Z,92.50
2018-11-27T18:43:35.254Z,92.50
2018-11-27T18:46:04.717Z,92.40
2018-11-27T18:48:33.811Z,92.50
2018-11-27T18:51:03.214Z,92.50
2018-11-27T18:53:37.734Z,92.50
2018-11-27T18:56:07.144Z,92.60
2018-11-27T18:58:36.284Z,92.70
2018-11-27T19:01:05.968Z,92.70
2018-11-27T19:03:35.269Z,92.60
2018-11-27T19:06:04.954Z,92.50
2018-11-27T19:08:34.152Z,92.40
2018-11-27T19:11:03.506Z,92.80
2018-11-27T19:13:32.760Z,92.60
2018-11-27T19:16:02.105Z,92.60
2018-11-27T19:18:31.239Z,92.50
2018-11-27T19:21:00.349Z,92.60
2018-11-27T19:23:29.456Z,92.50
2018-11-27T19:25:58.716Z,92.60
2018-11-27T19:28:27.868Z,92.60
2018-11-27T19:30:57.326Z,92.50
2018-11-27T19:33:26.524Z,92.50
2018-11-27T19:35:56.054Z,92.50
2018-11-27T19:38:25.177Z,92.30
2018-11-27T19:40:54.366Z,92.20
2018-11-27T19:43:23.442Z,92.20
2018-11-27T19:45:58.503Z,92.30
2018-11-27T19:48:28.048Z,92.50
2018-11-27T19:50:57.310Z,92.70
2018-11-27T19:53:32.388Z,92.80
2018-11-27T19:56:01.722Z,92.80
2018-11-27T19:58:30.883Z,92.80
2018-11-27T20:01:00.267Z,92.70
2018-11-27T20:03:29.388Z,92.50
2018-11-27T20:05:58.807Z,92.50
2018-11-27T20:08:27.890Z,92.50
2018-11-27T20:10:57.210Z,92.50
2018-11-27T20:13:26.340Z,92.50
2018-11-27T20:15:59.154Z,92.40
2018-11-27T20:18:28.366Z,92.50
2018-11-27T20:20:57.689Z,92.60
2018-11-27T20:23:26.858Z,92.50
2018-11-27T20:25:56.166Z,92.60
2018-11-27T20:28:25.472Z,92.50
2018-11-27T20:30:54.659Z,92.60
2018-11-27T20:33:29.490Z,92.60
2018-11-27T20:36:04.202Z,92.80
2018-11-27T20:38:39.291Z,92.80
2018-11-27T20:41:08.867Z,92.80
2018-11-27T20:43:38.031Z,92.70
2018-11-27T20:46:07.542Z,92.60
2018-11-27T20:48:37.691Z,92.70
2018-11-27T20:51:07.707Z,92.70
2018-11-27T20:53:36.878Z,92.60
2018-11-27T20:56:07.396Z,92.30
2018-11-27T20:58:36.595Z,92.30
2018-11-27T21:01:06.307Z,92.10
2018-11-27T21:03:35.604Z,91.80
2018-11-27T21:06:05.179Z,91.70
2018-11-27T21:08:34.375Z,91.80
2018-11-27T21:11:08.269Z,92.10
2018-11-27T21:13:33.253Z,92.20
2018-11-27T21:16:02.463Z,92.20
2018-11-27T21:18:31.582Z,92.50
2018-11-27T21:21:00.890Z,92.50
2018-11-27T21:23:29.982Z,92.50
2018-11-27T21:26:05.659Z,92.40
2018-11-27T21:28:35.052Z,92.30
2018-11-27T21:31:05.607Z,92.20
2018-11-27T21:33:34.706Z,92.30
2018-11-27T21:36:03.910Z,92.40
2018-11-27T21:38:33.154Z,92.10
2018-11-27T21:41:02.516Z,92.10
2018-11-27T21:43:31.954Z,92.30
2018-11-27T21:46:01.422Z,92.10
2018-11-27T21:48:30.600Z,92.20
2018-11-27T21:51:00.984Z,92.30
2018-11-27T21:53:30.352Z,92.20
2018-11-27T21:57:29.280Z,92.10
2018-11-27T22:00:04.082Z,92.30
2018-11-27T22:02:33.356Z,92.50
2018-11-27T22:05:02.456Z,92.70
2018-11-27T22:07:32.076Z,92.90
2018-11-27T22:10:01.291Z,92.70
2018-11-27T22:19:18.043Z,92.60
2018-11-27T22:21:47.151Z,92.70
2018-11-27T22:24:16.281Z,92.50
2018-11-27T22:26:45.531Z,92.40
2018-11-27T22:29:14.870Z,92.40
2018-11-27T22:31:44.095Z,92.40
2018-11-27T22:34:14.161Z,92.60
2018-11-27T22:36:43.391Z,92.90
2018-11-27T22:39:12.585Z,93.10
2018-11-27T22:41:41.942Z,93.00
2018-11-27T22:44:11.411Z,93.00
2018-11-27T22:46:40.587Z,92.90
2018-11-27T22:49:09.703Z,92.90
2018-11-27T22:51:38.860Z,93.00
2018-11-27T22:54:08.403Z,93.10
2018-11-27T22:56:37.649Z,93.40
2018-11-27T22:59:06.958Z,93.00
2018-11-27T23:01:39.271Z,92.80
2018-11-27T23:04:08.900Z,92.70
2018-11-27T23:06:38.060Z,92.70
2018-11-27T23:09:09.259Z,92.70
2018-11-27T23:11:43.980Z,92.80
2018-11-27T23:14:13.142Z,92.90
2018-11-27T23:16:47.769Z,92.70
2018-11-27T23:19:17.261Z,92.70
2018-11-27T23:21:46.528Z,93.00
2018-11-27T23:24:15.768Z,93.10
2018-11-27T23:26:44.954Z,93.30
2018-11-27T23:29:14.353Z,92.80
2018-11-27T23:31:43.496Z,92.50
2018-11-27T23:34:12.885Z,92.60
2018-11-27T23:36:42.091Z,92.70
2018-11-27T23:39:11.250Z,92.60
2018-11-27T23:41:40.386Z,92.50
2018-11-27T23:44:09.542Z,92.60
2018-11-27T23:46:38.714Z,92.80
2018-11-27T23:49:08.051Z,93.00
2018-11-27T23:51:37.168Z,93.20
2018-11-27T23:54:06.885Z,93.00
2018-11-27T23:56:36.022Z,93.30
2018-11-27T23:59:05.251Z,93.40
